Time;durP1;ratioP1;P1;durP2;ratioP2;P2;SDS_P1;SDS_P2;PMS_P1;PMS_P2;Temp;Humidity;BMP_temperature;BMP_pressure;BME280_temperature;BME280_humidity;BME280_pressure;Samples;Min_cycle;Max_cycle;Signal;HPM_P1;HPM_P2
2022/07/14 00:01:42;;;;;;;7.40;6.77;;;18.50;99.90;;;;;;5012744;28;20172;-72
2022/07/14 00:04:08;;;;;;;5.07;4.87;;;18.50;99.90;;;;;;5012772;28;20581;-72
2022/07/14 00:06:34;;;;;;;6.27;5.77;;;18.40;99.90;;;;;;5012492;28;20207;-72
2022/07/14 00:09:01;;;;;;;5.97;5.57;;;18.50;99.90;;;;;;5012006;28;20179;-72
2022/07/14 00:11:28;;;;;;;5.90;5.70;;;18.60;99.90;;;;;;5012556;28;20188;-73
2022/07/14 00:13:56;;;;;;;6.13;5.67;;;18.50;99.90;;;;;;5012359;28;20216;-72
2022/07/14 00:16:22;;;;;;;6.50;6.10;;;18.50;99.90;;;;;;5004869;28;20187;-73
2022/07/14 00:18:48;;;;;;;6.23;5.93;;;18.50;99.90;;;;;;5018929;28;20190;-73
2022/07/14 00:21:15;;;;;;;6.23;5.83;;;18.50;99.90;;;;;;5012405;28;20180;-73
2022/07/14 00:23:42;;;;;;;6.83;6.30;;;18.50;99.90;;;;;;5012350;28;20199;-72
2022/07/14 00:26:10;;;;;;;7.90;7.40;;;18.40;99.90;;;;;;4994898;28;20204;-72
2022/07/14 00:28:37;;;;;;;7.00;6.63;;;18.30;99.90;;;;;;5011361;28;20182;-72
2022/07/14 00:31:10;;;;;;;7.30;6.87;;;18.20;99.90;;;;;;5012245;28;20234;-72
2022/07/14 00:33:38;;;;;;;6.07;5.67;;;18.10;99.90;;;;;;5011959;28;20624;-74
2022/07/14 00:36:05;;;;;;;10.13;9.63;;;18.20;99.90;;;;;;4995149;28;20191;-72
2022/07/14 00:38:31;;;;;;;11.10;10.67;;;18.20;99.90;;;;;;5011295;28;20184;-71
2022/07/14 00:40:56;;;;;;;10.20;9.50;;;18.20;99.90;;;;;;5012098;28;20233;-71
2022/07/14 00:43:22;;;;;;;9.93;9.43;;;18.30;99.90;;;;;;5011188;28;20718;-74
2022/07/14 00:45:48;;;;;;;18.20;17.40;;;18.20;99.90;;;;;;5011924;28;20746;-72
2022/07/14 00:48:16;;;;;;;14.50;13.47;;;18.20;99.90;;;;;;5010951;28;20542;-73
2022/07/14 00:50:43;;;;;;;45.53;43.33;;;18.00;99.90;;;;;;5011212;28;20187;-72
2022/07/14 00:53:10;;;;;;;60.47;57.57;;;17.90;99.90;;;;;;5012053;28;20207;-71
2022/07/14 00:55:39;;;;;;;50.80;48.03;;;17.90;99.90;;;;;;4994301;28;20190;-72
2022/07/14 00:58:04;;;;;;;67.43;64.03;;;17.80;99.90;;;;;;5010892;28;20554;-71
2022/07/14 01:00:30;;;;;;;57.00;54.23;;;17.70;99.90;;;;;;4994322;28;20171;-73
2022/07/14 01:02:56;;;;;;;58.77;56.00;;;17.70;99.90;;;;;;5011324;28;20195;-71
2022/07/14 01:05:22;;;;;;;61.60;58.50;;;17.70;99.90;;;;;;4994140;28;20176;-71
2022/07/14 01:07:49;;;;;;;47.27;44.97;;;17.60;99.90;;;;;;5010891;28;20239;-72
2022/07/14 01:10:15;;;;;;;17.63;16.53;;;17.60;99.90;;;;;;5011849;28;20237;-72
2022/07/14 01:12:46;;;;;;;11.87;11.13;;;17.70;99.90;;;;;;5011664;28;20660;-72
2022/07/14 01:15:17;;;;;;;15.20;14.00;;;17.60;99.90;;;;;;5011945;28;20611;-71
2022/07/14 01:17:47;;;;;;;26.90;24.90;;;17.60;99.90;;;;;;5010825;28;20180;-71
2022/07/14 01:20:14;;;;;;;32.33;30.63;;;17.50;99.90;;;;;;5011715;28;20261;-71
2022/07/14 01:22:40;;;;;;;34.50;32.80;;;17.40;99.90;;;;;;5008008;28;20179;-74
2022/07/14 01:25:07;;;;;;;38.00;36.20;;;17.40;99.90;;;;;;5037087;28;20164;-74
2022/07/14 01:27:33;;;;;;;30.17;28.60;;;17.30;99.90;;;;;;5033348;28;20230;-71
2022/07/14 01:29:59;;;;;;;21.20;20.20;;;17.30;99.90;;;;;;5016924;28;20176;-72
2022/07/14 01:32:26;;;;;;;14.50;13.77;;;17.30;99.90;;;;;;4994006;28;20208;-72
2022/07/14 01:34:52;;;;;;;8.17;7.77;;;17.30;99.90;;;;;;5011491;28;20207;-73
2022/07/14 01:37:19;;;;;;;7.03;6.53;;;17.20;99.90;;;;;;5010944;28;20606;-72
2022/07/14 01:39:45;;;;;;;7.03;6.33;;;17.30;99.90;;;;;;5011358;28;20171;-72
2022/07/14 01:42:11;;;;;;;6.90;6.57;;;17.30;99.90;;;;;;5011533;28;20180;-72
2022/07/14 01:44:37;;;;;;;9.00;8.40;;;17.30;99.90;;;;;;5010921;28;20200;-72
2022/07/14 01:47:03;;;;;;;7.93;7.63;;;17.30;99.90;;;;;;5010462;28;20310;-71
2022/07/14 01:49:29;;;;;;;12.17;11.63;;;17.10;99.90;;;;;;5010569;28;20267;-71
2022/07/14 01:51:55;;;;;;;19.73;18.50;;;17.00;99.90;;;;;;4990582;28;21537;-72
2022/07/14 01:54:21;;;;;;;21.97;20.73;;;17.00;99.90;;;;;;5019136;28;20259;-71
2022/07/14 01:56:47;;;;;;;19.17;18.17;;;17.00;99.90;;;;;;5034125;28;20187;-72
2022/07/14 01:59:13;;;;;;;18.67;17.70;;;16.90;99.90;;;;;;5018549;28;20266;-72
2022/07/14 02:01:42;;;;;;;35.47;33.70;;;16.80;99.90;;;;;;5014828;28;20187;-72
2022/07/14 02:04:15;;;;;;;45.87;43.67;;;16.80;99.90;;;;;;5014917;28;20269;-72
2022/07/14 02:06:52;;;;;;;111.90;106.23;;;16.70;99.90;;;;;;5014344;28;20641;-71
2022/07/14 02:09:20;;;;;;;117.57;111.63;;;16.60;99.90;;;;;;5014734;28;20202;-74
2022/07/14 02:14:31;;;;;;;124.47;118.37;;;16.60;99.90;;;;;;5044657;23;20288;-73
2022/07/14 02:16:57;;;;;;;169.40;161.17;;;16.50;99.90;;;;;;5034920;28;20225;-74
2022/07/14 02:19:24;;;;;;;178.27;169.23;;;16.50;99.90;;;;;;5034160;28;20670;-73
2022/07/14 02:21:54;;;;;;;139.43;132.63;;;16.50;99.90;;;;;;5034119;28;20255;-74
2022/07/14 02:24:21;;;;;;;123.50;117.23;;;16.50;99.90;;;;;;5034159;28;20703;-73
2022/07/14 02:26:51;;;;;;;133.93;127.07;;;16.40;99.90;;;;;;5033362;28;20207;-73
2022/07/14 02:29:18;;;;;;;150.07;141.97;;;16.40;99.90;;;;;;5021614;28;20648;-73
2022/07/14 02:31:45;;;;;;;188.60;179.00;;;16.40;99.90;;;;;;5012968;28;20207;-74
2022/07/14 02:34:14;;;;;;;178.70;169.80;;;16.30;99.90;;;;;;5012901;28;20888;-73
2022/07/14 02:36:40;;;;;;;139.00;132.00;;;16.20;99.90;;;;;;5012904;28;20195;-73
2022/07/14 02:39:06;;;;;;;126.83;120.47;;;16.10;99.90;;;;;;5023484;28;20190;-73
2022/07/14 02:41:32;;;;;;;125.23;119.00;;;16.00;99.90;;;;;;5033645;28;20183;-73
2022/07/14 02:43:58;;;;;;;110.50;105.00;;;15.90;99.90;;;;;;5032636;28;20210;-73
2022/07/14 02:46:26;;;;;;;155.07;147.20;;;16.00;99.90;;;;;;5018831;28;20202;-73
2022/07/14 02:48:52;;;;;;;138.53;131.70;;;15.90;99.90;;;;;;5011722;28;20180;-73
2022/07/14 02:51:17;;;;;;;105.23;100.07;;;15.80;99.90;;;;;;5012187;28;20537;-73
2022/07/14 02:53:43;;;;;;;124.87;118.67;;;15.70;99.90;;;;;;5012591;28;20299;-73
2022/07/14 02:56:09;;;;;;;61.70;58.57;;;15.70;99.90;;;;;;5023950;28;20190;-74
2022/07/14 02:58:35;;;;;;;66.87;63.50;;;15.70;99.90;;;;;;5032750;28;20183;-74
2022/07/14 03:01:05;;;;;;;70.03;66.13;;;15.70;99.90;;;;;;5033507;28;20190;-73
2022/07/14 03:03:34;;;;;;;69.77;66.33;;;15.70;99.90;;;;;;5032109;28;20206;-74
2022/07/14 03:06:13;;;;;;;112.23;106.53;;;15.70;99.90;;;;;;5021913;28;20262;-73
2022/07/14 03:08:39;;;;;;;97.57;92.60;;;15.60;99.90;;;;;;5021101;28;20260;-74
2022/07/14 03:11:06;;;;;;;89.03;84.10;;;15.50;99.90;;;;;;5016802;28;20657;-73
2022/07/14 03:13:32;;;;;;;82.57;78.37;;;15.50;99.90;;;;;;5031860;28;20240;-73
2022/07/14 03:16:02;;;;;;;84.23;79.77;;;15.50;99.90;;;;;;5027198;28;20188;-73
2022/07/14 03:18:28;;;;;;;99.80;94.87;;;15.50;99.90;;;;;;5012282;28;20274;-72
2022/07/14 03:20:54;;;;;;;102.50;97.00;;;15.50;99.90;;;;;;5033066;28;20278;-73
2022/07/14 03:23:21;;;;;;;110.30;104.90;;;15.50;99.90;;;;;;5032757;28;20206;-73
2022/07/14 03:25:47;;;;;;;96.80;92.10;;;15.30;99.90;;;;;;5023881;28;20703;-72
2022/07/14 03:28:13;;;;;;;122.10;115.90;;;15.30;99.90;;;;;;5012519;28;20183;-73
2022/07/14 03:30:40;;;;;;;98.23;93.20;;;15.30;99.90;;;;;;5013192;28;20180;-73
2022/07/14 03:33:06;;;;;;;127.33;121.13;;;15.20;99.90;;;;;;5012588;28;20666;-73
2022/07/14 03:35:31;;;;;;;133.97;127.47;;;15.10;99.90;;;;;;5023092;28;20179;-73
2022/07/14 03:37:57;;;;;;;110.13;104.33;;;15.00;99.90;;;;;;5030571;28;20887;-73
2022/07/14 03:40:24;;;;;;;115.13;109.10;;;15.00;99.90;;;;;;5031190;28;20175;-73
2022/07/14 03:42:50;;;;;;;105.80;100.50;;;15.10;99.90;;;;;;5028412;28;20198;-73
2022/07/14 03:45:16;;;;;;;92.73;88.13;;;15.20;99.90;;;;;;5030549;28;20229;-72
2022/07/14 03:47:42;;;;;;;99.20;94.33;;;15.20;99.90;;;;;;5030935;28;20348;-72
2022/07/14 03:50:09;;;;;;;128.90;122.27;;;15.20;99.90;;;;;;5030989;28;20639;-73
2022/07/14 03:52:35;;;;;;;132.50;126.00;;;15.30;99.90;;;;;;5031784;28;20227;-73
2022/07/14 03:55:01;;;;;;;150.63;143.23;;;15.30;99.90;;;;;;5033659;28;20228;-73
2022/07/14 03:57:28;;;;;;;157.30;149.43;;;15.30;99.90;;;;;;5032098;28;20218;-72
2022/07/14 03:59:54;;;;;;;174.50;165.47;;;15.30;99.90;;;;;;5031347;28;20211;-72
2022/07/14 04:02:20;;;;;;;155.07;147.23;;;15.30;99.90;;;;;;5032389;28;20190;-72
2022/07/14 04:04:46;;;;;;;155.80;147.70;;;15.20;99.90;;;;;;5031616;28;20203;-72
2022/07/14 04:07:11;;;;;;;146.27;138.77;;;15.20;99.90;;;;;;5031070;28;20211;-73
2022/07/14 04:09:38;;;;;;;144.90;137.63;;;15.20;99.90;;;;;;5031925;28;20257;-72
2022/07/14 04:12:05;;;;;;;168.40;159.80;;;15.30;99.90;;;;;;5032647;28;20175;-72
2022/07/14 04:14:31;;;;;;;187.53;178.03;;;15.50;99.90;;;;;;5030929;28;20215;-72
2022/07/14 04:16:57;;;;;;;177.53;168.80;;;15.50;99.90;;;;;;5031296;28;20608;-73
2022/07/14 04:19:23;;;;;;;145.87;138.57;;;15.60;99.90;;;;;;5031900;28;20191;-73
2022/07/14 04:21:49;;;;;;;92.07;87.50;;;15.80;99.90;;;;;;5031988;28;20221;-72
2022/07/14 04:24:15;;;;;;;121.30;113.77;;;15.80;99.90;;;;;;5031999;28;20198;-73
2022/07/14 04:26:42;;;;;;;86.50;81.23;;;15.90;99.90;;;;;;5031820;28;20213;-72
2022/07/14 04:29:10;;;;;;;89.47;85.07;;;16.10;99.90;;;;;;5028476;28;20179;-73
2022/07/14 04:31:36;;;;;;;101.07;96.17;;;16.10;99.90;;;;;;5010776;28;20183;-73
2022/07/14 04:34:03;;;;;;;100.03;95.17;;;16.10;99.90;;;;;;5011807;28;20191;-73
2022/07/14 04:36:30;;;;;;;104.93;99.97;;;16.10;99.90;;;;;;5026648;28;20274;-73
2022/07/14 04:38:56;;;;;;;104.27;99.20;;;16.00;99.90;;;;;;5034930;28;20229;-73
2022/07/14 04:41:23;;;;;;;84.47;80.00;;;16.00;99.90;;;;;;5032101;28;20210;-73
2022/07/14 04:43:49;;;;;;;85.10;80.97;;;15.90;99.90;;;;;;5031491;28;20206;-73
2022/07/14 04:46:15;;;;;;;97.30;92.50;;;15.90;99.90;;;;;;5030139;28;20218;-73
2022/07/14 04:54:10;;;;;;;18.63;17.37;;;16.00;99.90;;;;;;5011571;28;20204;-73
2022/07/14 04:56:36;;;;;;;30.57;28.53;;;16.10;99.90;;;;;;5011555;28;20624;-73
2022/07/14 04:59:01;;;;;;;12.93;12.03;;;16.20;99.90;;;;;;5009055;28;20191;-73
2022/07/14 05:01:27;;;;;;;15.47;13.97;;;16.30;99.90;;;;;;5010698;28;20573;-73
2022/07/14 05:03:54;;;;;;;22.70;21.30;;;16.50;99.90;;;;;;5008992;28;20204;-73
2022/07/14 05:06:20;;;;;;;11.87;11.27;;;16.70;99.90;;;;;;5009850;28;20899;-74
2022/07/14 05:08:46;;;;;;;23.20;21.77;;;17.10;99.90;;;;;;5010059;28;20179;-74
2022/07/14 05:11:12;;;;;;;221.70;210.07;;;17.40;99.90;;;;;;5006546;28;20185;-77
2022/07/14 05:13:38;;;;;;;145.13;137.17;;;17.80;99.90;;;;;;5012049;28;20211;-77
2022/07/14 05:16:05;;;;;;;10.23;9.57;;;18.30;99.90;;;;;;5021160;28;20175;-77
2022/07/14 05:18:31;;;;;;;49.43;46.83;;;18.90;99.90;;;;;;5030846;28;20186;-77
2022/07/14 05:20:56;;;;;;;18.05;17.15;;;19.60;99.90;;;;;;5031118;28;20229;-77
2022/07/14 05:23:23;;;;;;;13.73;13.00;;;20.10;99.90;;;;;;5032515;28;20626;-77
2022/07/14 05:25:49;;;;;;;12.38;11.77;;;20.70;99.90;;;;;;5033664;28;20671;-77
2022/07/14 05:28:15;;;;;;;8.73;8.30;;;21.20;99.90;;;;;;5023456;28;20177;-77
2022/07/14 05:30:40;;;;;;;6.78;6.28;;;21.60;99.90;;;;;;5013269;28;20254;-77
2022/07/14 05:33:07;;;;;;;14.40;13.55;;;22.00;99.90;;;;;;5011255;28;20262;-77
2022/07/14 05:35:34;;;;;;;20.27;19.17;;;22.50;99.90;;;;;;5013191;28;20187;-76
2022/07/14 05:38:01;;;;;;;18.10;17.25;;;22.80;99.90;;;;;;5011496;28;20211;-77
2022/07/14 05:40:27;;;;;;;9.25;8.75;;;23.20;99.90;;;;;;5011830;28;20184;-77
2022/07/14 05:42:53;;;;;;;6.13;5.72;;;23.60;99.90;;;;;;5014249;28;20188;-77
2022/07/14 05:45:19;;;;;;;8.02;7.72;;;24.00;99.90;;;;;;5014034;28;20175;-77
2022/07/14 05:47:44;;;;;;;12.07;11.35;;;24.20;99.90;;;;;;5019455;28;20219;-77
2022/07/14 05:50:10;;;;;;;11.30;10.73;;;24.40;99.90;;;;;;5014431;28;20263;-77
2022/07/14 05:52:36;;;;;;;20.30;18.83;;;24.50;99.90;;;;;;5017302;28;20269;-77
2022/07/14 05:55:02;;;;;;;19.13;18.00;;;24.50;99.90;;;;;;5015395;28;20199;-77
2022/07/14 05:57:28;;;;;;;12.77;11.85;;;24.70;99.90;;;;;;5016365;28;20559;-77
2022/07/14 05:59:54;;;;;;;9.52;9.07;;;25.20;99.90;;;;;;5020268;28;20655;-78
2022/07/14 06:02:20;;;;;;;5.53;5.22;;;25.30;99.90;;;;;;5017244;28;20211;-77
2022/07/14 06:04:46;;;;;;;6.72;4.25;;;25.10;99.90;;;;;;5015883;28;20203;-77
2022/07/14 06:07:12;;;;;;;7.65;7.05;;;24.80;99.90;;;;;;5017570;28;20294;-78
2022/07/14 06:09:38;;;;;;;6.78;5.13;;;25.10;99.90;;;;;;5021168;28;20172;-78
2022/07/14 06:12:06;;;;;;;7.47;6.97;;;25.20;99.90;;;;;;5021557;28;20180;-78
2022/07/14 06:14:32;;;;;;;9.48;8.98;;;25.50;99.90;;;;;;5018285;28;20215;-78
2022/07/14 06:16:58;;;;;;;4.80;4.57;;;25.90;99.90;;;;;;5018832;28;20231;-79
2022/07/14 06:19:24;;;;;;;7.45;6.97;;;26.40;99.60;;;;;;5020294;28;20203;-77
2022/07/14 06:21:49;;;;;;;4.97;4.60;;;26.30;99.00;;;;;;5028868;28;20202;-78
2022/07/14 06:24:15;;;;;;;5.03;4.72;;;26.60;98.20;;;;;;5027190;28;20203;-81
2022/07/14 06:26:41;;;;;;;5.03;4.70;;;26.70;97.30;;;;;;5022490;28;20234;-80
2022/07/14 06:29:08;;;;;;;7.07;6.68;;;26.50;97.50;;;;;;5024759;28;20187;-78
2022/07/14 06:31:35;;;;;;;4.70;4.30;;;26.90;98.30;;;;;;5026251;28;20184;-77
2022/07/14 06:34:02;;;;;;;5.35;4.88;;;27.70;96.30;;;;;;5022762;28;20196;-78
2022/07/14 06:36:27;;;;;;;4.75;4.35;;;28.40;94.90;;;;;;5030065;28;20199;-78
2022/07/14 06:38:53;;;;;;;4.05;3.85;;;29.20;92.90;;;;;;5027190;28;20188;-78
2022/07/14 06:41:22;;;;;;;5.43;5.13;;;29.40;91.20;;;;;;5027130;28;20255;-79
2022/07/14 06:43:48;;;;;;;5.97;5.68;;;29.30;90.70;;;;;;5025715;28;20620;-79
2022/07/14 06:46:15;;;;;;;5.47;4.97;;;28.90;91.10;;;;;;5024735;28;20230;-79
2022/07/14 06:48:42;;;;;;;5.82;4.95;;;28.80;90.70;;;;;;5021720;28;20179;-78
2022/07/14 06:51:08;;;;;;;4.75;4.45;;;29.20;90.20;;;;;;5022541;28;20591;-80
2022/07/14 06:53:34;;;;;;;4.43;4.15;;;29.30;89.50;;;;;;5031408;28;20203;-79
2022/07/14 06:56:01;;;;;;;5.97;5.47;;;28.90;88.30;;;;;;5037444;28;20259;-80
2022/07/14 06:58:27;;;;;;;8.75;8.20;;;28.80;90.30;;;;;;5034045;28;20271;-80
2022/07/14 07:00:53;;;;;;;5.40;5.15;;;28.80;89.40;;;;;;5029950;28;20214;-79
2022/07/14 07:03:19;;;;;;;5.28;5.07;;;28.90;89.80;;;;;;5028766;28;20203;-81
2022/07/14 07:08:29;;;;;;;4.65;4.07;;;29.50;89.30;;;;;;5026308;28;20184;-79
2022/07/14 07:10:56;;;;;;;5.75;5.22;;;29.80;86.80;;;;;;5026838;28;20567;-83
2022/07/14 07:13:29;;;;;;;6.25;5.78;;;30.10;85.30;;;;;;5025251;28;20319;-80
2022/07/14 07:15:55;;;;;;;5.82;5.53;;;30.00;84.50;;;;;;5022719;28;20180;-81
2022/07/14 07:18:21;;;;;;;4.50;4.28;;;29.60;84.80;;;;;;5020314;28;20179;-79
2022/07/14 07:20:47;;;;;;;5.18;4.68;;;29.10;85.30;;;;;;5023165;28;20678;-80
2022/07/14 07:23:13;;;;;;;5.57;5.22;;;28.70;87.50;;;;;;5020913;28;20203;-79
2022/07/14 07:25:39;;;;;;;4.80;4.50;;;28.90;89.60;;;;;;5020877;28;20180;-80
2022/07/14 07:28:05;;;;;;;4.88;4.38;;;29.70;87.20;;;;;;5022688;28;20202;-77
2022/07/14 07:30:32;;;;;;;5.38;4.97;;;30.00;84.00;;;;;;5025037;28;20264;-77
2022/07/14 07:32:58;;;;;;;4.22;3.92;;;29.60;82.90;;;;;;5028539;28;20575;-78
2022/07/14 07:35:24;;;;;;;4.47;4.18;;;29.40;84.80;;;;;;5026184;28;20207;-81
2022/07/14 07:37:50;;;;;;;3.90;3.70;;;29.50;83.80;;;;;;5025957;28;20195;-79
2022/07/14 07:40:16;;;;;;;5.90;5.25;;;29.70;82.40;;;;;;5023429;28;20184;-78
2022/07/14 07:42:42;;;;;;;6.05;5.75;;;29.90;84.00;;;;;;5022011;28;20575;-78
2022/07/14 07:45:10;;;;;;;5.60;5.07;;;30.40;79.20;;;;;;5021831;28;20207;-77
2022/07/14 07:47:36;;;;;;;8.48;7.72;;;30.80;78.90;;;;;;5016398;28;20215;-77
2022/07/14 07:50:03;;;;;;;34.05;32.00;;;31.80;77.00;;;;;;5016188;28;20183;-78
2022/07/14 07:52:29;;;;;;;68.95;65.60;;;32.20;74.60;;;;;;5020350;28;20176;-78
2022/07/14 07:54:55;;;;;;;84.65;80.15;;;32.30;70.70;;;;;;5017124;28;20286;-80
2022/07/14 07:57:21;;;;;;;97.95;93.38;;;32.00;71.60;;;;;;5018111;28;20230;-76
2022/07/14 07:59:49;;;;;;;69.40;66.00;;;31.90;69.60;;;;;;5021018;28;20254;-77
2022/07/14 08:02:16;;;;;;;86.00;81.72;;;31.70;70.30;;;;;;5019894;28;20192;-76
2022/07/14 08:04:42;;;;;;;112.72;107.30;;;32.00;67.40;;;;;;5020805;28;20210;-77
2022/07/14 08:07:08;;;;;;;133.95;127.30;;;32.30;66.80;;;;;;5020289;28;20216;-79
2022/07/14 08:09:34;;;;;;;203.27;193.48;;;32.70;67.20;;;;;;5018717;28;20198;-78
2022/07/14 08:11:59;;;;;;;326.27;309.33;;;33.20;66.60;;;;;;5018293;28;20230;-78
2022/07/14 08:17:09;;;;;;;410.52;388.70;;;33.40;62.60;;;;;;5012901;28;20249;-82
2022/07/14 08:19:35;;;;;;;365.45;346.40;;;33.90;65.30;;;;;;5013800;28;20652;-77
2022/07/14 08:22:02;;;;;;;238.38;226.35;;;34.60;59.40;;;;;;5013521;28;20188;-81
2022/07/14 08:24:29;;;;;;;188.20;178.45;;;34.70;58.10;;;;;;5013765;28;20200;-78
2022/07/14 08:26:55;;;;;;;189.85;179.95;;;34.50;57.20;;;;;;5014514;28;20326;-82
2022/07/14 08:29:21;;;;;;;209.88;199.60;;;34.70;57.70;;;;;;5014623;28;20179;-82
2022/07/14 08:31:47;;;;;;;176.18;167.52;;;34.80;57.90;;;;;;5022345;28;20196;-81
2022/07/14 08:34:13;;;;;;;213.68;203.27;;;34.40;57.60;;;;;;5027611;28;20218;-81
2022/07/14 08:36:39;;;;;;;170.57;162.05;;;34.40;57.50;;;;;;5018407;28;20223;-81
2022/07/14 08:39:06;;;;;;;188.90;179.52;;;34.20;56.10;;;;;;5013206;28;20186;-80
2022/07/14 08:41:33;;;;;;;188.45;179.45;;;34.30;55.10;;;;;;5013428;28;20184;-82
2022/07/14 08:44:00;;;;;;;213.50;203.32;;;34.00;54.30;;;;;;5012927;28;20211;-81
2022/07/14 08:46:27;;;;;;;237.25;225.27;;;34.00;57.10;;;;;;5013468;28;20266;-81
2022/07/14 08:48:53;;;;;;;172.18;163.48;;;34.90;57.00;;;;;;5011611;28;20187;-80
2022/07/14 08:51:20;;;;;;;140.43;133.60;;;35.40;53.00;;;;;;5012970;28;20660;-80
2022/07/14 08:53:47;;;;;;;162.68;154.85;;;35.60;55.50;;;;;;5012978;28;20231;-80
2022/07/14 08:56:14;;;;;;;164.57;156.43;;;35.80;54.10;;;;;;5012873;28;20234;-81
2022/07/14 08:58:46;;;;;;;183.32;174.38;;;36.20;53.70;;;;;;5015169;28;20184;-80
2022/07/14 09:01:12;;;;;;;203.48;193.43;;;36.00;51.20;;;;;;5014392;28;20188;-82
2022/07/14 09:03:38;;;;;;;169.05;160.82;;;36.20;51.90;;;;;;5012830;28;20207;-82
2022/07/14 09:06:05;;;;;;;76.93;73.30;;;36.40;50.60;;;;;;5030740;28;20207;-80
2022/07/14 09:08:53;;;;;;;104.05;99.18;;;36.80;48.20;;;;;;5020971;28;20263;-82
2022/07/14 09:11:19;;;;;;;128.63;122.43;;;36.80;49.80;;;;;;5015439;28;20202;-81
2022/07/14 09:13:45;;;;;;;124.97;118.63;;;36.90;50.80;;;;;;5012394;28;20269;-81
2022/07/14 09:16:17;;;;;;;69.38;65.43;;;37.00;50.10;;;;;;5011947;28;20187;-81
2022/07/14 09:19:07;;;;;;;71.85;68.40;;;37.20;48.40;;;;;;5011988;28;20187;-82
2022/07/14 09:21:34;;;;;;;116.38;110.78;;;37.20;49.00;;;;;;5013416;28;20191;-81
2022/07/14 09:24:01;;;;;;;51.90;49.17;;;36.90;50.40;;;;;;5011553;28;20250;-77
2022/07/14 09:26:27;;;;;;;36.47;34.67;;;36.80;47.80;;;;;;5013424;28;20215;-80
2022/07/14 09:28:53;;;;;;;82.82;78.68;;;36.80;48.10;;;;;;5010830;28;20651;-81
2022/07/14 09:31:29;;;;;;;46.78;44.50;;;37.30;48.90;;;;;;5012035;28;20668;-82
2022/07/14 09:33:57;;;;;;;8.65;8.27;;;37.60;47.30;;;;;;5011925;28;20203;-81
2022/07/14 09:36:34;;;;;;;6.03;5.63;;;37.70;46.60;;;;;;5012940;28;20190;-80
2022/07/14 09:39:08;;;;;;;4.82;3.35;;;37.70;45.70;;;;;;5016009;28;20191;-79
2022/07/14 09:41:39;;;;;;;4.65;4.35;;;37.50;45.60;;;;;;5023804;28;20614;-78
2022/07/14 09:44:10;;;;;;;3.15;3.00;;;37.60;44.50;;;;;;5013526;28;20214;-79
2022/07/14 09:46:51;;;;;;;5.10;3.53;;;37.50;45.30;;;;;;5013267;28;20203;-78
2022/07/14 09:49:18;;;;;;;6.28;5.72;;;36.40;45.10;;;;;;5012104;28;20179;-75
2022/07/14 09:51:56;;;;;;;20.35;19.08;;;36.00;47.40;;;;;;5010835;28;20175;-77
2022/07/14 09:54:37;;;;;;;144.98;137.65;;;35.20;48.00;;;;;;5012888;28;20209;-77
2022/07/14 09:57:08;;;;;;;217.40;206.43;;;34.50;49.60;;;;;;5009988;28;20192;-76
2022/07/14 09:59:43;;;;;;;226.25;215.30;;;35.00;49.00;;;;;;5011328;28;20176;-75
2022/07/14 10:02:26;;;;;;;117.90;112.25;;;35.60;49.00;;;;;;5011058;28;20554;-77
2022/07/14 10:04:54;;;;;;;46.58;44.10;;;36.10;46.80;;;;;;5013857;28;20203;-77
2022/07/14 10:07:22;;;;;;;6.05;5.60;;;36.50;46.00;;;;;;5012651;28;20219;-77
2022/07/14 10:10:03;;;;;;;3.45;3.25;;;37.10;45.80;;;;;;5013894;28;20180;-77
2022/07/14 10:12:29;;;;;;;3.72;3.38;;;37.50;44.40;;;;;;5012579;28;20188;-75
2022/07/14 10:15:00;;;;;;;6.75;6.35;;;37.90;44.30;;;;;;5013078;28;20219;-76
2022/07/14 10:17:27;;;;;;;5.38;5.15;;;38.40;43.60;;;;;;5016428;28;20195;-77
2022/07/14 10:19:54;;;;;;;5.68;5.38;;;39.10;43.10;;;;;;5021387;28;20239;-77
2022/07/14 10:22:20;;;;;;;6.78;5.07;;;39.00;42.40;;;;;;5024465;28;20191;-78
2022/07/14 10:24:49;;;;;;;4.75;4.50;;;39.40;41.70;;;;;;5018966;28;20261;-76
2022/07/14 10:27:18;;;;;;;3.42;3.33;;;39.30;42.20;;;;;;5014128;28;20208;-77
2022/07/14 10:29:53;;;;;;;9.30;8.35;;;38.60;42.00;;;;;;5015423;28;20210;-76
2022/07/14 10:32:38;;;;;;;6.57;6.10;;;38.10;43.50;;;;;;5015368;28;20668;-76
2022/07/14 10:35:25;;;;;;;8.85;7.65;;;38.10;44.10;;;;;;5021133;28;20399;-75
2022/07/14 10:38:12;;;;;;;10.05;9.43;;;37.60;44.20;;;;;;5022250;28;20194;-77
2022/07/14 10:40:52;;;;;;;12.95;12.27;;;37.70;44.10;;;;;;5014791;28;20238;-75
2022/07/14 10:43:22;;;;;;;9.32;8.77;;;37.50;44.50;;;;;;5014581;28;20189;-77
2022/07/14 10:45:49;;;;;;;9.68;9.18;;;37.00;44.50;;;;;;5014751;28;20607;-77
2022/07/14 10:48:35;;;;;;;7.32;6.72;;;36.60;44.70;;;;;;5014084;28;20183;-76
2022/07/14 10:51:19;;;;;;;4.82;4.43;;;36.20;46.10;;;;;;5014395;28;20207;-76
2022/07/14 10:54:06;;;;;;;6.70;6.20;;;35.80;45.80;;;;;;5014413;28;20196;-76
2022/07/14 10:56:32;;;;;;;7.68;7.22;;;36.90;45.30;;;;;;5013677;28;20195;-77
2022/07/14 10:59:26;;;;;;;8.45;7.90;;;37.70;42.70;;;;;;5013542;28;20209;-76
2022/07/14 11:02:10;;;;;;;9.30;8.48;;;38.90;43.70;;;;;;5013897;28;20191;-78
2022/07/14 11:04:59;;;;;;;7.82;7.47;;;39.60;42.60;;;;;;5014293;28;20199;-76
2022/07/14 11:07:47;;;;;;;4.47;2.92;;;40.60;39.90;;;;;;5013177;28;20212;-77
2022/07/14 11:10:19;;;;;;;4.80;3.15;;;40.90;36.70;;;;;;5013150;28;20207;-76
2022/07/14 11:13:06;;;;;;;4.15;2.55;;;41.10;38.70;;;;;;5014241;28;20681;-76
2022/07/14 11:15:39;;;;;;;3.95;2.55;;;41.30;37.40;;;;;;5014016;28;20219;-75
2022/07/14 11:18:17;;;;;;;3.30;3.08;;;41.00;37.20;;;;;;5012122;28;20274;-78
2022/07/14 11:20:55;;;;;;;3.25;2.92;;;41.10;35.70;;;;;;5015069;28;20234;-78
2022/07/14 11:23:28;;;;;;;4.05;2.90;;;41.10;36.60;;;;;;5017420;28;20186;-78
2022/07/14 11:25:55;;;;;;;3.78;3.00;;;40.60;36.10;;;;;;5013944;28;20190;-78
2022/07/14 11:28:42;;;;;;;3.38;3.00;;;39.80;37.00;;;;;;5012997;28;20182;-79
2022/07/14 11:31:21;;;;;;;4.68;2.80;;;39.90;37.80;;;;;;5013871;28;20270;-79
2022/07/14 11:36:38;;;;;;;3.42;3.22;;;40.60;36.50;;;;;;5025106;28;20207;-78
2022/07/14 11:39:16;;;;;;;4.72;4.28;;;41.20;35.40;;;;;;5016973;28;20628;-78
2022/07/14 11:41:47;;;;;;;2.90;2.78;;;41.50;35.90;;;;;;5013869;28;20192;-79
2022/07/14 11:44:35;;;;;;;3.03;2.92;;;42.10;34.80;;;;;;5013364;28;20226;-78
2022/07/14 11:47:07;;;;;;;3.75;2.72;;;41.60;33.10;;;;;;5013951;28;20310;-77
2022/07/14 11:49:34;;;;;;;3.25;3.00;;;41.50;35.60;;;;;;5012398;28;20729;-79
2022/07/14 11:52:02;;;;;;;4.30;3.83;;;41.60;33.90;;;;;;5014155;28;20179;-75
2022/07/14 11:54:28;;;;;;;3.90;3.33;;;41.80;35.10;;;;;;5014444;28;20291;-76
2022/07/14 11:57:14;;;;;;;3.03;2.92;;;41.90;33.00;;;;;;5027101;28;20262;-75
2022/07/14 11:59:42;;;;;;;3.08;2.92;;;41.90;34.00;;;;;;5012587;28;20196;-80
2022/07/14 12:02:14;;;;;;;3.97;3.67;;;41.20;33.40;;;;;;5014819;28;20176;-77
2022/07/14 12:04:55;;;;;;;4.03;3.55;;;40.60;34.00;;;;;;5013967;28;20554;-77
2022/07/14 12:07:24;;;;;;;4.28;3.97;;;40.60;33.60;;;;;;5013198;28;20215;-77
2022/07/14 12:09:50;;;;;;;5.22;3.30;;;40.80;32.50;;;;;;5013385;28;20242;-75
2022/07/14 12:12:18;;;;;;;5.78;3.88;;;41.30;32.40;;;;;;5013164;28;20187;-77
2022/07/14 12:14:50;;;;;;;7.50;5.13;;;40.90;32.90;;;;;;5016717;28;20242;-80
2022/07/14 12:17:17;;;;;;;8.23;3.42;;;40.30;32.80;;;;;;5016765;28;20241;-78
2022/07/14 12:19:45;;;;;;;3.28;3.08;;;39.60;33.20;;;;;;5017634;28;20214;-77
2022/07/14 12:22:11;;;;;;;3.55;3.22;;;39.60;33.10;;;;;;5014355;28;20191;-78
2022/07/14 12:24:38;;;;;;;4.40;4.10;;;40.50;32.30;;;;;;5012087;28;20195;-76
2022/07/14 12:27:06;;;;;;;5.68;3.25;;;40.80;32.50;;;;;;5011526;28;20215;-77
2022/07/14 12:29:34;;;;;;;6.40;3.35;;;40.30;33.40;;;;;;5013061;28;20172;-80
2022/07/14 12:32:01;;;;;;;3.92;3.72;;;40.70;34.70;;;;;;5011860;28;20671;-76
2022/07/14 12:34:29;;;;;;;5.75;3.33;;;40.60;33.80;;;;;;5016259;28;20196;-75
2022/07/14 12:36:57;;;;;;;3.90;3.55;;;41.10;33.10;;;;;;5011914;28;20188;-77
2022/07/14 12:39:24;;;;;;;5.57;3.28;;;41.50;34.60;;;;;;5018770;28;20191;-79
2022/07/14 12:41:50;;;;;;;3.40;3.10;;;40.50;34.50;;;;;;5019475;28;20607;-79
2022/07/14 12:44:17;;;;;;;3.65;2.83;;;40.00;34.80;;;;;;5017358;28;20199;-78
2022/07/14 12:46:43;;;;;;;8.63;3.00;;;40.00;35.30;;;;;;5015128;28;20215;-76
2022/07/14 12:49:09;;;;;;;6.57;3.35;;;40.60;34.20;;;;;;5016687;28;20530;-82
2022/07/14 12:51:43;;;;;;;5.40;3.25;;;40.70;34.30;;;;;;5025713;28;20176;-77
2022/07/14 12:54:18;;;;;;;4.88;2.75;;;39.80;35.10;;;;;;5020404;28;20195;-82